createdAt,value
2023-05-02T00:02:09.318Z,12.30
2023-05-02T00:04:56.211Z,12.30
2023-05-02T00:07:43.381Z,12.20
2023-05-02T00:10:29.615Z,12.10
2023-05-02T00:13:17.538Z,12.10
2023-05-02T00:16:04.132Z,12.10
2023-05-02T00:18:50.286Z,12.10
2023-05-02T00:21:36.821Z,12.10
2023-05-02T00:24:23.321Z,12.20
2023-05-02T00:27:09.730Z,12.20
2023-05-02T00:29:58.543Z,12.20
2023-05-02T00:32:45.953Z,12.20
2023-05-02T00:35:34.569Z,12.10
2023-05-02T00:38:21.224Z,12.10
2023-05-02T00:41:08.150Z,12.20
2023-05-02T00:43:54.680Z,12.20
2023-05-02T00:46:43.028Z,12.30
2023-05-02T00:49:31.039Z,12.30
2023-05-02T00:52:18.277Z,12.00
2023-05-02T00:55:05.008Z,11.70
2023-05-02T00:57:52.546Z,11.60
2023-05-02T01:00:51.345Z,11.60
2023-05-02T01:03:47.364Z,11.60
2023-05-02T01:06:49.402Z,11.70
2023-05-02T01:09:46.654Z,11.80
2023-05-02T01:12:40.552Z,11.90
2023-05-02T01:15:27.706Z,11.90
2023-05-02T01:18:16.100Z,11.90
2023-05-02T01:21:07.340Z,11.90
2023-05-02T01:24:04.188Z,11.80
2023-05-02T01:27:02.560Z,11.80
2023-05-02T01:29:52.642Z,11.80
2023-05-02T01:32:42.357Z,11.90
2023-05-02T01:35:30.804Z,11.80
2023-05-02T01:38:19.098Z,11.90
2023-05-02T01:41:07.374Z,11.80
2023-05-02T01:43:58.012Z,11.70
2023-05-02T01:46:47.328Z,11.60
2023-05-02T01:49:35.796Z,11.50
2023-05-02T01:52:24.636Z,11.50
2023-05-02T01:55:15.035Z,11.20
2023-05-02T01:58:02.991Z,11.10
2023-05-02T02:00:51.134Z,10.90
2023-05-02T02:03:39.594Z,11.00
2023-05-02T02:06:27.463Z,11.10
2023-05-02T02:09:14.409Z,11.10
2023-05-02T02:12:06.420Z,11.10
2023-05-02T02:14:58.292Z,11.10
2023-05-02T02:17:50.300Z,11.10
2023-05-02T02:20:41.601Z,11.10
2023-05-02T02:23:31.202Z,11.10
2023-05-02T02:26:20.668Z,11.10
2023-05-02T02:29:07.227Z,11.10
2023-05-02T02:31:54.127Z,11.10
2023-05-02T02:34:40.418Z,10.80
2023-05-02T02:37:33.555Z,10.90
2023-05-02T02:40:26.377Z,10.90
2023-05-02T02:43:20.411Z,11.00
2023-05-02T02:46:17.946Z,10.90
2023-05-02T02:49:19.315Z,10.80
2023-05-02T02:52:12.192Z,10.90
2023-05-02T02:55:07.679Z,10.70
2023-05-02T02:58:01.538Z,10.50
2023-05-02T03:00:49.840Z,10.40
2023-05-02T03:03:37.528Z,10.30
2023-05-02T03:06:25.749Z,10.20
2023-05-02T03:09:18.561Z,9.80
2023-05-02T03:12:08.363Z,9.80
2023-05-02T03:15:04.768Z,9.70
2023-05-02T03:17:52.183Z,9.60
2023-05-02T03:20:39.182Z,9.80
2023-05-02T03:23:26.167Z,9.80
2023-05-02T03:26:15.207Z,9.90
2023-05-02T03:29:03.041Z,9.90
2023-05-02T03:31:55.476Z,10.10
2023-05-02T03:34:43.493Z,10.10
2023-05-02T03:37:31.069Z,10.10
2023-05-02T03:40:21.666Z,9.80
2023-05-02T03:43:08.484Z,9.60
2023-05-02T03:45:57.479Z,9.30
2023-05-02T03:48:46.415Z,9.40
2023-05-02T03:51:33.713Z,9.50
2023-05-02T03:54:20.418Z,9.40
2023-05-02T03:57:08.781Z,9.30
2023-05-02T03:59:56.625Z,9.50
2023-05-02T04:02:49.220Z,9.50
2023-05-02T04:05:39.856Z,9.20
2023-05-02T04:08:26.832Z,9.20
2023-05-02T04:11:13.932Z,9.00
2023-05-02T04:14:00.952Z,8.70
2023-05-02T04:16:51.129Z,8.80
2023-05-02T04:19:44.839Z,9.00
2023-05-02T04:22:33.133Z,9.10
2023-05-02T04:25:23.481Z,9.20
2023-05-02T04:28:12.599Z,9.30
2023-05-02T04:30:59.840Z,9.40
2023-05-02T04:33:48.874Z,9.50
2023-05-02T04:36:40.111Z,9.50
2023-05-02T04:39:28.613Z,9.70
2023-05-02T04:42:20.438Z,9.90
2023-05-02T04:45:33.432Z,9.80
2023-05-02T04:48:20.071Z,9.90
2023-05-02T04:51:07.191Z,9.80
2023-05-02T04:53:55.245Z,9.60
2023-05-02T04:56:42.137Z,9.70
2023-05-02T04:59:29.542Z,9.50
2023-05-02T05:02:16.103Z,9.40
2023-05-02T05:05:03.346Z,9.60
2023-05-02T05:07:51.077Z,9.60
2023-05-02T05:10:40.855Z,9.40
2023-05-02T05:13:29.387Z,9.40
2023-05-02T05:16:15.887Z,9.20
2023-05-02T05:19:03.993Z,9.20
2023-05-02T05:21:51.041Z,9.20
2023-05-02T05:24:39.214Z,9.20
2023-05-02T05:27:27.522Z,9.20
2023-05-02T05:30:14.403Z,9.40
2023-05-02T05:33:03.155Z,9.70
2023-05-02T05:35:49.707Z,9.90
2023-05-02T05:38:37.284Z,9.90
2023-05-02T05:41:25.637Z,10.00
2023-05-02T05:44:22.017Z,10.20
2023-05-02T05:47:09.481Z,10.20
2023-05-02T05:49:57.041Z,9.90
2023-05-02T05:52:48.002Z,9.70
2023-05-02T05:55:36.585Z,9.90
2023-05-02T05:58:24.828Z,9.90
2023-05-02T06:01:15.265Z,9.80
2023-05-02T06:04:02.961Z,9.90
2023-05-02T06:06:51.426Z,10.00
2023-05-02T06:09:38.564Z,10.10
2023-05-02T06:12:25.528Z,10.40
2023-05-02T06:15:12.446Z,10.70
2023-05-02T06:18:01.554Z,11.00
2023-05-02T06:20:48.156Z,11.30
2023-05-02T06:23:34.766Z,11.50
2023-05-02T06:26:21.602Z,11.60
2023-05-02T06:29:08.051Z,11.70
2023-05-02T06:31:56.681Z,11.80
2023-05-02T06:34:45.009Z,11.80
2023-05-02T06:37:35.548Z,11.90
2023-05-02T06:40:22.225Z,12.10
2023-05-02T06:43:08.584Z,12.50
2023-05-02T06:45:56.264Z,13.10
2023-05-02T06:48:43.319Z,13.60
2023-05-02T06:51:31.866Z,13.80
2023-05-02T06:54:18.176Z,13.70
2023-05-02T06:57:04.677Z,13.60
2023-05-02T06:59:51.345Z,13.60
2023-05-02T07:02:37.748Z,13.80
2023-05-02T07:05:24.959Z,14.00
2023-05-02T07:08:13.091Z,14.10
2023-05-02T07:10:59.921Z,14.40
2023-05-02T07:13:46.617Z,14.80
2023-05-02T07:16:32.969Z,15.10
2023-05-02T07:19:19.774Z,15.10
2023-05-02T07:22:07.278Z,15.30
2023-05-02T07:25:00.484Z,15.40
2023-05-02T07:27:47.242Z,15.60
2023-05-02T07:30:34.312Z,15.70
2023-05-02T07:33:20.877Z,16.30
2023-05-02T07:36:07.848Z,17.00
2023-05-02T07:38:54.738Z,17.40
2023-05-02T07:41:43.102Z,17.60
2023-05-02T07:44:30.157Z,17.80
2023-05-02T07:47:17.029Z,18.10
2023-05-02T07:50:04.744Z,17.80
2023-05-02T07:52:51.698Z,18.00
2023-05-02T07:55:38.390Z,17.70
2023-05-02T07:58:26.128Z,17.60
2023-05-02T08:01:12.814Z,17.70
2023-05-02T08:03:59.497Z,17.70
2023-05-02T08:06:46.364Z,17.60
2023-05-02T08:09:32.951Z,17.40
2023-05-02T08:12:19.403Z,17.40
2023-05-02T08:15:08.612Z,17.20
2023-05-02T08:17:55.260Z,17.00
2023-05-02T08:20:42.250Z,16.80
2023-05-02T08:23:29.380Z,16.60
2023-05-02T08:26:18.947Z,16.40
2023-05-02T08:29:06.038Z,16.20
2023-05-02T08:31:53.946Z,16.40
2023-05-02T08:34:40.801Z,17.20
2023-05-02T08:37:27.240Z,18.20
2023-05-02T08:40:15.226Z,18.90
2023-05-02T08:43:02.452Z,19.30
2023-05-02T08:45:53.723Z,19.30
2023-05-02T08:48:43.893Z,19.00
2023-05-02T08:51:32.597Z,18.90
2023-05-02T08:54:21.198Z,18.50
2023-05-02T08:57:08.129Z,18.90
2023-05-02T08:59:54.689Z,19.50
2023-05-02T09:02:55.069Z,20.00
2023-05-02T09:05:43.286Z,19.80
2023-05-02T09:08:30.165Z,19.70
2023-05-02T09:11:18.155Z,19.50
2023-05-02T09:14:16.041Z,19.20
2023-05-02T09:17:02.983Z,19.10
2023-05-02T09:20:01.118Z,19.00
2023-05-02T09:22:53.724Z,18.90
2023-05-02T09:25:41.522Z,19.00
2023-05-02T09:28:42.200Z,19.10
2023-05-02T09:34:25.198Z,18.80
2023-05-02T09:37:13.523Z,18.90
2023-05-02T09:40:11.957Z,19.80
2023-05-02T09:42:58.672Z,20.20
2023-05-02T09:45:58.084Z,20.90
2023-05-02T09:48:54.158Z,21.20
2023-05-02T09:51:40.796Z,21.00
2023-05-02T09:54:37.319Z,21.30
2023-05-02T09:57:41.492Z,21.10
2023-05-02T10:00:44.742Z,21.10
2023-05-02T10:03:32.445Z,20.90
2023-05-02T10:06:21.623Z,20.30
2023-05-02T10:09:08.298Z,19.50
2023-05-02T10:11:56.610Z,18.90
2023-05-02T10:14:50.673Z,18.50
2023-05-02T10:17:42.963Z,18.40
2023-05-02T10:20:35.881Z,18.40
2023-05-02T10:23:23.337Z,18.50
2023-05-02T10:26:12.065Z,18.70
2023-05-02T10:28:58.985Z,18.60
2023-05-02T10:31:48.217Z,18.50
2023-05-02T10:34:35.729Z,18.20
2023-05-02T10:37:22.686Z,17.90
2023-05-02T10:40:12.613Z,17.80
2023-05-02T10:42:59.432Z,17.80
2023-05-02T10:45:46.463Z,17.70
2023-05-02T10:48:35.666Z,17.80
2023-05-02T10:51:29.116Z,18.00
2023-05-02T10:54:25.655Z,18.00
2023-05-02T10:57:12.521Z,17.90
2023-05-02T11:00:24.291Z,17.80
2023-05-02T11:03:11.188Z,17.60
2023-05-02T11:06:08.048Z,17.40
2023-05-02T11:09:15.398Z,17.50
2023-05-02T11:12:05.851Z,17.50
2023-05-02T11:14:52.552Z,17.70
2023-05-02T11:18:02.073Z,17.80
2023-05-02T11:20:49.160Z,17.90
2023-05-02T11:23:37.178Z,17.90
2023-05-02T11:26:26.264Z,18.20
2023-05-02T11:29:13.402Z,18.40
2023-05-02T11:32:00.358Z,18.70
2023-05-02T11:34:50.835Z,18.80
2023-05-02T11:37:37.521Z,18.70
2023-05-02T11:40:24.212Z,18.50
2023-05-02T11:43:14.960Z,18.50
2023-05-02T11:46:03.037Z,18.50
2023-05-02T11:48:50.089Z,18.60
2023-05-02T11:51:38.595Z,18.70
2023-05-02T11:54:26.009Z,18.80
2023-05-02T11:57:13.110Z,19.10
2023-05-02T11:59:59.715Z,19.50
2023-05-02T12:02:48.914Z,19.90
2023-05-02T12:05:35.789Z,19.70
2023-05-02T12:08:25.475Z,19.40
2023-05-02T12:11:14.829Z,19.40
2023-05-02T12:14:01.485Z,19.30
2023-05-02T12:16:48.249Z,19.70
2023-05-02T12:19:37.128Z,19.80
2023-05-02T12:22:24.895Z,19.70
2023-05-02T12:25:12.894Z,19.60
2023-05-02T12:28:03.325Z,19.30
2023-05-02T12:30:51.397Z,19.50
2023-05-02T12:33:43.758Z,19.50
2023-05-02T12:36:30.495Z,19.80
2023-05-02T12:39:17.026Z,20.00
2023-05-02T12:42:12.719Z,20.00
2023-05-02T12:44:59.449Z,20.00
2023-05-02T12:47:47.247Z,20.00
2023-05-02T12:50:38.652Z,19.80
2023-05-02T12:53:42.077Z,19.60
2023-05-02T12:56:32.298Z,19.70
2023-05-02T12:59:28.882Z,19.60
2023-05-02T13:02:15.257Z,19.70
2023-05-02T13:05:01.735Z,19.90
2023-05-02T13:07:48.192Z,19.70
2023-05-02T13:10:35.171Z,19.50
2023-05-02T13:13:22.476Z,19.50
2023-05-02T13:16:10.814Z,19.50
2023-05-02T13:18:57.520Z,19.30
2023-05-02T13:21:44.607Z,19.40
2023-05-02T13:24:31.630Z,19.20
2023-05-02T13:27:18.577Z,19.30
2023-05-02T13:30:08.836Z,19.30
2023-05-02T13:32:58.531Z,19.20
2023-05-02T13:35:45.097Z,19.20
2023-05-02T13:38:31.928Z,19.20
2023-05-02T13:41:19.038Z,19.00
2023-05-02T13:44:06.259Z,19.10
2023-05-02T13:46:52.969Z,19.00
2023-05-02T13:49:40.769Z,18.90
2023-05-02T13:52:27.378Z,19.00
2023-05-02T13:55:14.853Z,19.00
2023-05-02T13:58:01.519Z,18.90
2023-05-02T14:00:48.940Z,19.00
2023-05-02T14:03:35.912Z,19.00
2023-05-02T14:06:23.995Z,19.00
2023-05-02T14:09:10.542Z,19.00
2023-05-02T14:11:58.651Z,19.10
2023-05-02T14:14:45.047Z,19.10
2023-05-02T14:17:32.090Z,19.00
2023-05-02T14:20:18.826Z,19.00
2023-05-02T14:23:07.550Z,19.00
2023-05-02T14:25:54.250Z,18.90
2023-05-02T14:28:40.917Z,18.90
2023-05-02T14:31:27.527Z,18.80
2023-05-02T14:34:14.338Z,18.80
2023-05-02T14:37:00.776Z,18.80
2023-05-02T14:39:51.645Z,18.70
2023-05-02T14:42:39.369Z,18.80
2023-05-02T14:45:25.916Z,18.80
2023-05-02T14:48:13.976Z,18.60
2023-05-02T14:51:04.683Z,18.50
2023-05-02T14:53:51.668Z,18.50
2023-05-02T14:56:40.051Z,18.50
2023-05-02T14:59:30.240Z,18.50
2023-05-02T15:02:16.870Z,18.50
2023-05-02T15:05:03.941Z,18.40
2023-05-02T15:07:50.733Z,18.40
2023-05-02T15:10:40.713Z,18.30
2023-05-02T15:13:28.493Z,18.30
2023-05-02T15:16:15.564Z,18.40
2023-05-02T15:19:02.446Z,18.40
2023-05-02T15:21:49.842Z,18.40
2023-05-02T15:24:36.464Z,18.40
2023-05-02T15:27:22.666Z,18.50
2023-05-02T15:30:11.731Z,18.50
2023-05-02T15:32:58.497Z,18.50
2023-05-02T15:35:54.886Z,18.50
2023-05-02T15:38:42.842Z,18.50
2023-05-02T15:41:29.744Z,18.50
2023-05-02T15:44:16.551Z,18.60
2023-05-02T15:47:04.384Z,18.60
2023-05-02T15:49:53.778Z,18.60
2023-05-02T15:52:40.374Z,18.60
2023-05-02T15:55:27.274Z,18.60
2023-05-02T15:58:14.742Z,18.50
2023-05-02T16:01:01.301Z,18.50
2023-05-02T16:03:50.521Z,18.40
2023-05-02T16:06:37.254Z,18.40
2023-05-02T16:09:24.523Z,18.40
2023-05-02T16:12:11.722Z,18.50
2023-05-02T16:14:58.212Z,18.40
2023-05-02T16:17:44.685Z,18.30
2023-05-02T16:20:36.397Z,18.40
2023-05-02T16:23:23.645Z,18.40
2023-05-02T16:26:10.334Z,18.40
2023-05-02T16:28:56.682Z,18.30
2023-05-02T16:31:44.528Z,18.30
2023-05-02T16:34:33.449Z,18.30
2023-05-02T16:37:21.440Z,18.10
2023-05-02T16:40:09.029Z,18.00
2023-05-02T16:42:55.689Z,18.00
2023-05-02T16:45:42.099Z,17.90
2023-05-02T16:48:28.669Z,17.90
2023-05-02T16:51:15.615Z,17.90
2023-05-02T16:54:03.559Z,17.90
2023-05-02T16:56:50.376Z,17.90
2023-05-02T16:59:37.121Z,17.90
2023-05-02T17:02:24.730Z,17.80
2023-05-02T17:05:17.272Z,17.70
2023-05-02T17:08:04.224Z,17.70
2023-05-02T17:10:52.618Z,17.70
2023-05-02T17:13:39.367Z,17.60
2023-05-02T17:16:25.694Z,17.60
2023-05-02T17:19:12.611Z,17.50
2023-05-02T17:22:00.193Z,17.60
2023-05-02T17:24:48.541Z,17.50
2023-05-02T17:27:39.122Z,17.40
2023-05-02T17:30:27.655Z,17.40
2023-05-02T17:33:14.855Z,17.30
2023-05-02T17:36:01.589Z,17.20
2023-05-02T17:38:48.052Z,17.30
2023-05-02T17:41:36.972Z,17.30
2023-05-02T17:44:25.275Z,17.20
2023-05-02T17:47:12.064Z,17.20
2023-05-02T17:49:58.563Z,17.10
2023-05-02T17:52:45.127Z,16.80
2023-05-02T17:55:31.776Z,16.80
2023-05-02T17:58:18.611Z,16.70
2023-05-02T18:01:10.583Z,16.70
2023-05-02T18:03:58.836Z,16.60
2023-05-02T18:06:45.681Z,16.60
2023-05-02T18:09:32.525Z,16.50
2023-05-02T18:12:19.502Z,16.50
2023-05-02T18:15:07.927Z,16.40
2023-05-02T18:17:56.618Z,16.40
2023-05-02T18:20:43.412Z,16.30
2023-05-02T18:23:30.044Z,16.30
2023-05-02T18:26:16.380Z,16.30
2023-05-02T18:29:03.483Z,16.30
2023-05-02T18:31:52.415Z,16.30
2023-05-02T18:34:40.884Z,16.20
2023-05-02T18:37:31.196Z,16.20
2023-05-02T18:40:17.975Z,16.10
2023-05-02T18:43:04.859Z,16.10
2023-05-02T18:45:51.638Z,16.00
2023-05-02T18:48:38.663Z,15.90
2023-05-02T18:51:28.053Z,15.80
2023-05-02T18:54:14.394Z,15.80
2023-05-02T18:57:01.990Z,15.80
2023-05-02T18:59:48.755Z,15.80
2023-05-02T19:02:35.238Z,15.70
2023-05-02T19:05:22.129Z,15.60
2023-05-02T19:08:10.548Z,15.40
2023-05-02T19:10:57.317Z,15.40
2023-05-02T19:13:43.786Z,15.30
2023-05-02T19:16:30.340Z,15.30
2023-05-02T19:19:18.159Z,15.20
2023-05-02T19:22:05.145Z,15.10
2023-05-02T19:24:53.431Z,15.00
2023-05-02T19:27:40.638Z,15.00
2023-05-02T19:30:27.401Z,15.00
2023-05-02T19:33:13.815Z,15.00
2023-05-02T19:36:00.600Z,15.10
2023-05-02T19:38:49.340Z,15.00
2023-05-02T19:41:38.345Z,14.90
2023-05-02T19:44:24.800Z,14.80
2023-05-02T19:47:11.523Z,14.70
2023-05-02T19:49:58.161Z,14.70
2023-05-02T19:52:45.052Z,14.60
2023-05-02T19:55:32.363Z,14.60
2023-05-02T19:58:20.183Z,14.50
2023-05-02T20:01:07.045Z,14.40
2023-05-02T20:03:53.536Z,14.40
2023-05-02T20:06:40.643Z,14.40
2023-05-02T20:09:28.101Z,14.40
2023-05-02T20:12:14.580Z,14.40
2023-05-02T20:15:02.828Z,14.30
2023-05-02T20:17:49.287Z,14.30
2023-05-02T20:20:36.042Z,14.30
2023-05-02T20:23:22.420Z,14.20
2023-05-02T20:26:08.842Z,14.00
2023-05-02T20:28:58.517Z,13.90
2023-05-02T20:31:46.647Z,13.90
2023-05-02T20:34:35.356Z,13.90
2023-05-02T20:37:21.811Z,13.90
2023-05-02T20:40:10.004Z,13.70
2023-05-02T20:42:57.235Z,13.80
2023-05-02T20:45:43.710Z,13.70
2023-05-02T20:48:31.874Z,13.70
2023-05-02T20:51:18.808Z,13.70
2023-05-02T20:54:06.212Z,13.70
2023-05-02T20:56:52.763Z,13.60
2023-05-02T20:59:39.241Z,13.60
2023-05-02T21:02:27.785Z,13.60
2023-05-02T21:05:16.240Z,13.60
2023-05-02T21:08:03.236Z,13.50
2023-05-02T21:10:49.839Z,13.50
2023-05-02T21:13:36.318Z,13.50
2023-05-02T21:16:22.970Z,13.40
2023-05-02T21:19:09.838Z,13.50
2023-05-02T21:21:57.963Z,13.50
2023-05-02T21:24:48.019Z,13.50
2023-05-02T21:27:34.426Z,13.40
2023-05-02T21:30:21.432Z,13.40
2023-05-02T21:33:08.143Z,13.40
2023-05-02T21:35:58.724Z,13.30
2023-05-02T21:38:46.692Z,13.30
2023-05-02T21:41:33.586Z,13.20
2023-05-02T21:44:19.956Z,13.20
2023-05-02T21:47:06.723Z,13.00
2023-05-02T21:49:54.713Z,12.90
2023-05-02T21:52:41.529Z,12.80
2023-05-02T21:55:29.367Z,12.70
2023-05-02T21:58:15.630Z,12.70
2023-05-02T22:01:02.402Z,12.50
2023-05-02T22:03:49.157Z,12.40
2023-05-02T22:06:35.643Z,11.90
2023-05-02T22:09:23.054Z,11.70
2023-05-02T22:12:11.190Z,11.70
2023-05-02T22:14:58.097Z,11.50
2023-05-02T22:17:45.994Z,11.60
2023-05-02T22:20:32.795Z,11.80
2023-05-02T22:23:19.841Z,11.80
2023-05-02T22:26:06.314Z,11.80
2023-05-02T22:28:54.220Z,11.80
2023-05-02T22:31:40.711Z,11.70
2023-05-02T22:34:27.098Z,11.70
2023-05-02T22:37:13.889Z,11.60
2023-05-02T22:40:00.499Z,11.60
2023-05-02T22:42:46.990Z,11.60
2023-05-02T22:45:36.314Z,11.40
2023-05-02T22:48:22.820Z,11.40
2023-05-02T22:51:09.409Z,11.30
2023-05-02T22:53:56.531Z,11.20
2023-05-02T22:56:43.079Z,11.10
2023-05-02T22:59:29.757Z,11.10
2023-05-02T23:02:17.692Z,11.00
2023-05-02T23:05:04.826Z,11.00
2023-05-02T23:07:51.282Z,11.10
2023-05-02T23:10:37.994Z,11.10
2023-05-02T23:13:24.639Z,10.90
2023-05-02T23:16:11.180Z,10.90
2023-05-02T23:18:59.337Z,10.90
2023-05-02T23:21:46.204Z,10.40
2023-05-02T23:24:32.859Z,10.10
2023-05-02T23:27:19.476Z,10.00
2023-05-02T23:30:07.767Z,10.00
2023-05-02T23:32:55.404Z,9.80
2023-05-02T23:35:43.833Z,9.70
2023-05-02T23:38:30.620Z,9.80
2023-05-02T23:41:17.540Z,10.00
2023-05-02T23:44:05.060Z,10.10
2023-05-02T23:46:51.436Z,9.90
2023-05-02T23:49:38.272Z,9.80
2023-05-02T23:52:26.132Z,9.60
2023-05-02T23:55:12.840Z,9.50
2023-05-02T23:57:59.429Z,9.40
